createdAt,value
2017-10-22T00:01:42.743Z,45.25
2017-10-22T00:04:08.986Z,60.65
2017-10-22T00:06:35.192Z,54.30
2017-10-22T00:09:01.417Z,58.55
2017-10-22T00:11:27.679Z,54.72
2017-10-22T00:13:54.615Z,62.13
2017-10-22T00:16:21.140Z,40.37
2017-10-22T00:18:48.689Z,46.83
2017-10-22T00:21:14.920Z,37.85
2017-10-22T00:23:41.387Z,47.35
2017-10-22T00:26:09.016Z,38.70
2017-10-22T00:28:35.551Z,41.23
2017-10-22T00:31:02.565Z,49.75
2017-10-22T00:33:29.303Z,36.45
2017-10-22T00:35:55.635Z,25.45
2017-10-22T00:38:22.422Z,16.80
2017-10-22T00:40:49.269Z,6.95
2017-10-22T00:43:16.933Z,4.30
2017-10-22T00:45:44.803Z,3.65
2017-10-22T00:48:11.829Z,4.60
2017-10-22T00:50:38.079Z,6.43
2017-10-22T00:53:05.141Z,3.80
2017-10-22T00:55:31.376Z,4.43
2017-10-22T00:57:57.603Z,3.43
2017-10-22T01:00:24.130Z,2.60
2017-10-22T01:02:50.984Z,1.92
2017-10-22T01:05:18.360Z,1.70
2017-10-22T01:07:45.163Z,3.35
2017-10-22T01:10:11.463Z,1.48
2017-10-22T01:12:38.369Z,3.20
2017-10-22T01:15:04.770Z,1.45
2017-10-22T01:17:31.574Z,1.60
2017-10-22T01:19:59.523Z,1.92
2017-10-22T01:22:25.753Z,1.73
2017-10-22T01:24:51.981Z,2.20
2017-10-22T01:27:19.099Z,2.45
2017-10-22T01:29:45.768Z,2.60
2017-10-22T01:32:13.456Z,2.55
2017-10-22T01:34:40.013Z,2.50
2017-10-22T01:37:07.334Z,2.90
2017-10-22T01:39:33.576Z,2.87
2017-10-22T01:42:00.880Z,4.78
2017-10-22T01:44:27.796Z,2.97
2017-10-22T01:46:54.791Z,2.70
2017-10-22T01:49:21.017Z,3.40
2017-10-22T01:51:47.247Z,2.78
2017-10-22T01:54:13.782Z,2.30
2017-10-22T01:56:40.790Z,3.33
2017-10-22T01:59:08.323Z,3.30
2017-10-22T02:01:35.288Z,2.12
2017-10-22T02:04:02.590Z,2.90
2017-10-22T02:06:29.607Z,3.85
2017-10-22T02:08:56.440Z,3.75
2017-10-22T02:11:22.769Z,3.70
2017-10-22T02:13:48.975Z,2.00
2017-10-22T02:16:16.484Z,3.72
2017-10-22T02:18:42.734Z,3.55
2017-10-22T02:21:09.293Z,2.60
2017-10-22T02:23:36.785Z,4.28
2017-10-22T02:26:04.564Z,3.95
2017-10-22T02:28:31.014Z,4.32
2017-10-22T02:30:58.021Z,4.32
2017-10-22T02:33:24.352Z,2.78
2017-10-22T02:35:50.615Z,5.40
2017-10-22T02:38:17.646Z,5.28
2017-10-22T02:40:44.953Z,2.70
2017-10-22T02:43:12.249Z,6.22
2017-10-22T02:45:40.222Z,3.22
2017-10-22T02:48:06.430Z,5.28
2017-10-22T02:50:33.309Z,4.28
2017-10-22T02:53:08.170Z,3.42
2017-10-22T02:55:35.047Z,4.80
2017-10-22T02:58:01.785Z,2.67
2017-10-22T03:00:29.027Z,3.62
2017-10-22T03:02:55.523Z,3.40
2017-10-22T03:05:22.986Z,4.32
2017-10-22T03:07:49.222Z,5.53
2017-10-22T03:10:15.634Z,2.90
2017-10-22T03:12:43.188Z,4.43
2017-10-22T03:15:11.304Z,3.53
2017-10-22T03:17:38.380Z,4.87
2017-10-22T03:20:04.666Z,2.92
2017-10-22T03:22:31.867Z,4.97
2017-10-22T03:24:58.891Z,4.00
2017-10-22T03:27:25.197Z,3.03
2017-10-22T03:29:52.135Z,8.20
2017-10-22T03:32:18.671Z,4.70
2017-10-22T03:34:45.389Z,3.58
2017-10-22T03:37:11.854Z,3.97
2017-10-22T03:39:38.072Z,7.30
2017-10-22T03:42:05.183Z,3.33
2017-10-22T03:44:32.238Z,3.90
2017-10-22T03:46:58.513Z,2.92
2017-10-22T03:49:26.121Z,5.90
2017-10-22T03:51:52.837Z,3.85
2017-10-22T03:54:19.081Z,2.90
2017-10-22T03:56:45.291Z,3.30
2017-10-22T03:59:11.487Z,5.22
2017-10-22T04:01:45.422Z,3.65
2017-10-22T04:04:12.044Z,4.12
2017-10-22T04:06:38.634Z,4.50
2017-10-22T04:09:05.409Z,4.22
2017-10-22T04:11:32.397Z,4.75
2017-10-22T04:13:59.124Z,5.60
2017-10-22T04:16:26.362Z,3.53
2017-10-22T04:18:52.578Z,2.50
2017-10-22T04:21:19.633Z,3.65
2017-10-22T04:23:47.214Z,4.18
2017-10-22T04:26:13.728Z,1.75
2017-10-22T04:28:40.061Z,2.05
2017-10-22T04:31:06.916Z,2.37
2017-10-22T04:33:33.313Z,2.62
2017-10-22T04:36:00.597Z,4.78
2017-10-22T04:38:28.590Z,5.97
2017-10-22T04:40:54.785Z,1.50
2017-10-22T04:43:21.518Z,4.12
2017-10-22T04:45:49.667Z,1.75
2017-10-22T04:48:15.874Z,4.43
2017-10-22T04:50:42.068Z,2.87
2017-10-22T04:53:08.449Z,1.80
2017-10-22T04:55:36.039Z,3.30
2017-10-22T04:58:03.617Z,3.30
2017-10-22T05:00:31.126Z,2.92
2017-10-22T05:02:57.313Z,2.70
2017-10-22T05:05:23.509Z,3.35
2017-10-22T05:07:50.733Z,5.62
2017-10-22T05:10:17.710Z,4.45
2017-10-22T05:12:43.950Z,4.57
2017-10-22T05:15:10.173Z,6.28
2017-10-22T05:17:36.448Z,4.78
2017-10-22T05:20:02.707Z,4.78
2017-10-22T05:22:29.788Z,4.80
2017-10-22T05:24:56.793Z,3.42
2017-10-22T05:27:23.751Z,4.82
2017-10-22T05:29:50.690Z,3.87
2017-10-22T05:32:18.617Z,3.87
2017-10-22T05:34:45.537Z,3.05
2017-10-22T05:37:13.126Z,4.62
2017-10-22T05:39:39.927Z,2.80
2017-10-22T05:42:06.499Z,3.12
2017-10-22T05:44:32.709Z,3.20
2017-10-22T05:46:59.475Z,3.50
2017-10-22T05:49:26.267Z,3.00
2017-10-22T05:51:52.546Z,3.08
2017-10-22T05:54:19.349Z,2.60
2017-10-22T05:56:45.637Z,3.83
2017-10-22T05:59:12.066Z,1.75
2017-10-22T06:01:38.689Z,2.08
2017-10-22T06:04:06.493Z,6.00
2017-10-22T06:06:33.469Z,2.00
2017-10-22T06:09:00.194Z,2.20
2017-10-22T06:11:27.857Z,1.83
2017-10-22T06:13:55.160Z,4.28
2017-10-22T06:16:21.442Z,3.10
2017-10-22T06:18:47.662Z,2.55
2017-10-22T06:21:14.678Z,1.70
2017-10-22T06:23:41.649Z,4.22
2017-10-22T06:26:07.946Z,3.20
2017-10-22T06:28:34.925Z,2.20
2017-10-22T06:31:01.147Z,2.35
2017-10-22T06:33:27.634Z,3.92
2017-10-22T06:35:55.020Z,2.08
2017-10-22T06:38:23.134Z,6.15
2017-10-22T06:40:49.707Z,3.65
2017-10-22T06:43:16.816Z,4.05
2017-10-22T06:45:43.369Z,2.80
2017-10-22T06:48:10.482Z,4.50
2017-10-22T06:50:36.790Z,1.92
2017-10-22T06:53:04.062Z,2.20
2017-10-22T06:55:31.494Z,3.58
2017-10-22T06:57:59.175Z,4.15
2017-10-22T07:00:25.695Z,3.20
2017-10-22T07:02:52.873Z,3.62
2017-10-22T07:05:19.209Z,2.55
2017-10-22T07:07:45.574Z,1.85
2017-10-22T07:10:11.811Z,4.65
2017-10-22T07:12:38.077Z,6.28
2017-10-22T07:15:04.362Z,14.13
2017-10-22T07:17:31.360Z,7.07
2017-10-22T07:19:57.627Z,3.50
2017-10-22T07:22:23.808Z,4.25
2017-10-22T07:24:51.598Z,3.22
2017-10-22T07:27:18.818Z,5.07
2017-10-22T07:29:45.153Z,3.60
2017-10-22T07:32:11.377Z,4.40
2017-10-22T07:34:39.018Z,4.43
2017-10-22T07:37:05.596Z,4.22
2017-10-22T07:39:33.341Z,4.03
2017-10-22T07:41:59.733Z,3.83
2017-10-22T07:44:26.552Z,4.35
2017-10-22T07:46:52.845Z,2.75
2017-10-22T07:49:19.214Z,3.75
2017-10-22T07:51:45.496Z,7.68
2017-10-22T07:54:13.184Z,5.10
2017-10-22T07:56:40.761Z,5.12
2017-10-22T07:59:07.024Z,4.43
2017-10-22T08:01:33.316Z,2.35
2017-10-22T08:03:59.578Z,2.67
2017-10-22T08:06:25.875Z,2.87
2017-10-22T08:08:52.987Z,3.03
2017-10-22T08:11:19.284Z,4.82
2017-10-22T08:13:45.493Z,3.75
2017-10-22T08:16:11.718Z,6.75
2017-10-22T08:18:37.960Z,3.60
2017-10-22T08:21:04.307Z,2.87
2017-10-22T08:23:32.249Z,4.32
2017-10-22T08:25:58.468Z,4.22
2017-10-22T08:28:24.728Z,4.15
2017-10-22T08:30:51.739Z,3.60
2017-10-22T08:33:17.979Z,4.10
2017-10-22T08:35:44.378Z,5.10
2017-10-22T08:38:10.634Z,3.47
2017-10-22T08:40:36.935Z,4.68
2017-10-22T08:43:03.481Z,3.87
2017-10-22T08:45:29.754Z,53.63
2017-10-22T08:47:55.991Z,5.65
2017-10-22T08:50:22.842Z,3.50
2017-10-22T08:52:50.809Z,5.72
2017-10-22T08:55:18.075Z,3.40
2017-10-22T08:57:46.194Z,3.67
2017-10-22T09:00:12.430Z,3.62
2017-10-22T09:02:38.991Z,4.30
2017-10-22T09:05:05.919Z,3.95
2017-10-22T09:07:32.216Z,4.05
2017-10-22T09:09:58.598Z,4.65
2017-10-22T09:12:25.567Z,5.18
2017-10-22T09:14:51.837Z,5.70
2017-10-22T09:17:19.236Z,4.37
2017-10-22T09:19:47.222Z,5.57
2017-10-22T09:22:14.064Z,4.57
2017-10-22T09:24:41.192Z,3.45
2017-10-22T09:27:09.173Z,3.70
2017-10-22T09:29:35.571Z,5.35
2017-10-22T09:32:02.182Z,4.05
2017-10-22T09:34:29.221Z,3.08
2017-10-22T09:36:55.494Z,3.80
2017-10-22T09:39:22.711Z,5.82
2017-10-22T09:41:49.977Z,6.03
2017-10-22T09:44:16.214Z,2.62
2017-10-22T09:46:43.459Z,7.50
2017-10-22T09:49:11.016Z,5.87
2017-10-22T09:51:37.311Z,2.95
2017-10-22T09:54:03.560Z,4.35
2017-10-22T09:56:30.305Z,2.45
2017-10-22T09:58:56.854Z,2.25
2017-10-22T10:01:23.867Z,2.50
2017-10-22T10:03:51.129Z,8.48
2017-10-22T10:06:18.399Z,8.43
2017-10-22T10:08:45.591Z,8.65
2017-10-22T10:11:11.870Z,9.73
2017-10-22T10:13:38.476Z,7.80
2017-10-22T10:16:05.916Z,6.22
2017-10-22T10:18:32.986Z,3.35
2017-10-22T10:21:00.159Z,3.35
2017-10-22T10:23:26.432Z,3.45
2017-10-22T10:25:52.674Z,3.67
2017-10-22T10:28:19.554Z,3.58
2017-10-22T10:30:46.732Z,3.75
2017-10-22T10:33:13.029Z,3.20
2017-10-22T10:35:39.856Z,5.47
2017-10-22T10:38:06.135Z,2.55
2017-10-22T10:40:34.020Z,4.85
2017-10-22T10:43:01.820Z,2.25
2017-10-22T10:45:28.678Z,4.95
2017-10-22T10:47:56.293Z,2.80
2017-10-22T10:50:22.751Z,4.03
2017-10-22T10:52:49.794Z,6.05
2017-10-22T10:55:16.638Z,3.30
2017-10-22T10:57:43.086Z,4.10
2017-10-22T11:00:10.879Z,3.28
2017-10-22T11:02:38.144Z,3.12
2017-10-22T11:05:05.676Z,4.95
2017-10-22T11:07:32.699Z,4.80
2017-10-22T11:09:59.416Z,3.22
2017-10-22T11:12:26.491Z,3.72
2017-10-22T11:14:52.979Z,6.10
2017-10-22T11:17:20.498Z,7.65
2017-10-22T11:19:53.530Z,5.85
2017-10-22T11:22:20.533Z,2.65
2017-10-22T11:24:46.747Z,2.95
2017-10-22T11:27:13.176Z,6.43
2017-10-22T11:29:40.187Z,2.80
2017-10-22T11:32:06.699Z,1.92
2017-10-22T11:34:33.679Z,3.35
2017-10-22T11:37:00.520Z,4.00
2017-10-22T11:39:27.409Z,6.22
2017-10-22T11:41:53.849Z,2.37
2017-10-22T11:44:20.760Z,1.92
2017-10-22T11:46:47.178Z,3.00
2017-10-22T11:49:14.072Z,6.40
2017-10-22T11:51:40.294Z,3.47
2017-10-22T11:54:07.082Z,1.62
2017-10-22T11:56:33.549Z,1.70
2017-10-22T11:58:59.841Z,1.67
2017-10-22T12:01:26.115Z,2.62
2017-10-22T12:03:52.332Z,1.77
2017-10-22T12:06:19.601Z,4.15
2017-10-22T12:08:46.465Z,1.50
2017-10-22T12:11:13.824Z,4.60
2017-10-22T12:13:40.999Z,2.65
2017-10-22T12:16:07.328Z,2.33
2017-10-22T12:18:33.588Z,1.73
2017-10-22T12:20:59.936Z,2.10
2017-10-22T12:23:26.305Z,2.00
2017-10-22T12:25:53.290Z,2.75
2017-10-22T12:28:19.514Z,4.93
2017-10-22T12:30:45.788Z,2.70
2017-10-22T12:33:13.186Z,2.20
2017-10-22T12:35:39.428Z,2.03
2017-10-22T12:38:05.623Z,2.22
2017-10-22T12:40:31.850Z,3.10
2017-10-22T12:42:58.971Z,3.10
2017-10-22T12:45:27.044Z,2.37
2017-10-22T12:47:53.526Z,3.97
2017-10-22T12:50:20.387Z,3.10
2017-10-22T12:52:47.156Z,2.47
2017-10-22T12:55:13.614Z,2.30
2017-10-22T12:57:41.191Z,2.17
2017-10-22T13:00:08.469Z,3.57
2017-10-22T13:02:36.942Z,2.80
2017-10-22T13:05:03.500Z,3.97
2017-10-22T13:07:31.137Z,3.37
2017-10-22T13:09:57.475Z,2.85
2017-10-22T13:12:24.236Z,5.20
2017-10-22T13:14:50.701Z,2.17
2017-10-22T13:17:17.933Z,6.60
2017-10-22T13:19:45.913Z,2.47
2017-10-22T13:22:14.206Z,3.00
2017-10-22T13:24:41.783Z,3.35
2017-10-22T13:27:08.638Z,4.80
2017-10-22T13:29:35.432Z,5.87
2017-10-22T13:32:01.720Z,2.33
2017-10-22T13:34:27.955Z,3.67
2017-10-22T13:36:54.496Z,8.10
2017-10-22T13:39:21.284Z,4.95
2017-10-22T13:41:48.564Z,3.12
2017-10-22T13:44:17.009Z,2.00
2017-10-22T13:46:43.980Z,4.32
2017-10-22T13:49:11.344Z,3.08
2017-10-22T13:51:37.688Z,2.75
2017-10-22T13:54:03.892Z,4.75
2017-10-22T13:56:30.088Z,8.45
2017-10-22T13:58:57.714Z,2.42
2017-10-22T14:01:24.345Z,3.72
2017-10-22T14:03:52.063Z,6.40
2017-10-22T14:06:18.350Z,4.80
2017-10-22T14:08:44.796Z,3.92
2017-10-22T14:11:11.871Z,4.93
2017-10-22T14:13:39.149Z,2.55
2017-10-22T14:16:05.963Z,2.05
2017-10-22T14:18:32.374Z,2.85
2017-10-22T14:23:32.188Z,3.00
2017-10-22T14:25:58.724Z,3.28
2017-10-22T14:28:25.150Z,2.92
2017-10-22T14:30:52.685Z,4.12
2017-10-22T14:33:19.230Z,15.43
2017-10-22T14:35:46.722Z,19.05
2017-10-22T14:38:13.999Z,7.60
2017-10-22T14:40:41.423Z,6.00
2017-10-22T14:43:07.632Z,15.32
2017-10-22T14:45:33.843Z,9.13
2017-10-22T14:48:00.076Z,7.22
2017-10-22T14:50:26.710Z,6.12
2017-10-22T14:52:54.340Z,5.75
2017-10-22T14:55:21.555Z,3.97
2017-10-22T14:57:47.913Z,5.53
2017-10-22T15:00:15.354Z,4.43
2017-10-22T15:02:41.755Z,13.38
2017-10-22T15:05:08.323Z,10.07
2017-10-22T15:07:34.991Z,8.80
2017-10-22T15:10:02.469Z,11.48
2017-10-22T15:12:29.960Z,5.22
2017-10-22T15:14:57.545Z,4.70
2017-10-22T15:17:24.044Z,7.05
2017-10-22T15:19:51.220Z,5.95
2017-10-22T15:22:18.207Z,7.00
2017-10-22T15:24:44.428Z,8.43
2017-10-22T15:27:10.663Z,8.75
2017-10-22T15:29:37.548Z,10.68
2017-10-22T15:32:04.315Z,18.40
2017-10-22T15:34:31.270Z,14.60
2017-10-22T15:36:58.379Z,10.75
2017-10-22T15:39:24.897Z,8.55
2017-10-22T15:41:51.215Z,10.30
2017-10-22T15:44:17.390Z,17.20
2017-10-22T15:46:44.502Z,14.80
2017-10-22T15:49:11.493Z,15.52
2017-10-22T15:51:38.440Z,9.35
2017-10-22T15:54:05.407Z,11.27
2017-10-22T15:56:31.624Z,13.30
2017-10-22T15:58:58.336Z,9.25
2017-10-22T16:01:24.532Z,8.68
2017-10-22T16:03:52.462Z,10.00
2017-10-22T16:06:18.772Z,16.55
2017-10-22T16:08:45.737Z,17.40
2017-10-22T16:11:11.952Z,16.73
2017-10-22T16:13:38.885Z,10.68
2017-10-22T16:16:06.384Z,12.55
2017-10-22T16:18:33.436Z,11.43
2017-10-22T16:21:00.484Z,11.10
2017-10-22T16:23:27.973Z,12.57
2017-10-22T16:25:54.554Z,15.55
2017-10-22T16:28:20.741Z,11.23
2017-10-22T16:30:46.939Z,11.98
2017-10-22T16:33:13.152Z,16.02
2017-10-22T16:35:40.212Z,13.15
2017-10-22T16:38:06.978Z,15.05
2017-10-22T16:40:33.770Z,12.32
2017-10-22T16:43:00.959Z,11.45
2017-10-22T16:45:27.174Z,9.40
2017-10-22T16:47:53.378Z,12.05
2017-10-22T16:50:20.491Z,10.00
2017-10-22T16:52:47.695Z,11.77
2017-10-22T16:55:14.604Z,9.85
2017-10-22T16:57:40.799Z,13.02
2017-10-22T17:00:08.221Z,19.73
2017-10-22T17:02:35.694Z,13.15
2017-10-22T17:05:03.266Z,17.20
2017-10-22T17:07:29.919Z,22.60
2017-10-22T17:09:56.858Z,16.62
2017-10-22T17:12:23.052Z,18.42
2017-10-22T17:14:49.276Z,18.95
2017-10-22T17:17:15.494Z,26.58
2017-10-22T17:19:41.687Z,23.52
2017-10-22T17:22:09.246Z,23.70
2017-10-22T17:24:36.201Z,16.30
2017-10-22T17:27:02.396Z,15.27
2017-10-22T17:29:28.766Z,13.02
2017-10-22T17:31:55.668Z,18.80
2017-10-22T17:34:23.845Z,13.60
2017-10-22T17:36:50.898Z,13.07
2017-10-22T17:39:17.173Z,9.55
2017-10-22T17:41:43.391Z,8.73
2017-10-22T17:44:09.978Z,9.07
2017-10-22T17:46:36.989Z,14.18
2017-10-22T17:49:03.838Z,8.32
2017-10-22T17:51:30.111Z,15.48
2017-10-22T17:53:58.211Z,10.63
2017-10-22T17:56:25.003Z,9.90
2017-10-22T17:58:52.796Z,12.90
2017-10-22T18:01:19.749Z,15.35
2017-10-22T18:03:47.355Z,15.25
2017-10-22T18:06:13.549Z,12.93
2017-10-22T18:08:40.177Z,11.57
2017-10-22T18:11:07.432Z,17.08
2017-10-22T18:13:34.203Z,13.45
2017-10-22T18:16:00.887Z,21.05
2017-10-22T18:18:28.532Z,18.48
2017-10-22T18:20:54.748Z,12.35
2017-10-22T18:23:21.565Z,14.80
2017-10-22T18:25:48.099Z,19.77
2017-10-22T18:28:15.676Z,13.65
2017-10-22T18:30:42.443Z,12.00
2017-10-22T18:33:08.686Z,11.50
2017-10-22T18:35:35.664Z,13.10
2017-10-22T18:38:02.426Z,13.27
2017-10-22T18:40:30.587Z,19.58
2017-10-22T18:42:57.879Z,17.50
2017-10-22T18:45:24.112Z,13.60
2017-10-22T18:47:50.444Z,16.17
2017-10-22T18:50:18.010Z,11.50
2017-10-22T18:52:45.573Z,9.98
2017-10-22T18:55:12.540Z,7.43
2017-10-22T18:57:39.515Z,5.47
2017-10-22T19:00:07.152Z,8.88
2017-10-22T19:02:33.992Z,6.47
2017-10-22T19:05:00.298Z,7.50
2017-10-22T19:07:27.832Z,3.30
2017-10-22T19:09:54.351Z,3.78
2017-10-22T19:12:21.985Z,3.95
2017-10-22T19:14:49.883Z,3.20
2017-10-22T19:17:17.082Z,3.90
2017-10-22T19:19:45.136Z,3.53
2017-10-22T19:22:12.210Z,3.42
2017-10-22T19:24:38.945Z,5.47
2017-10-22T19:27:05.144Z,5.28
2017-10-22T19:29:32.006Z,7.50
2017-10-22T19:31:59.196Z,6.30
2017-10-22T19:34:26.789Z,4.40
2017-10-22T19:36:53.562Z,4.07
2017-10-22T19:39:20.373Z,4.03
2017-10-22T19:41:46.718Z,5.18
2017-10-22T19:44:13.687Z,4.00
2017-10-22T19:46:40.021Z,4.95
2017-10-22T19:49:07.015Z,4.47
2017-10-22T19:51:33.884Z,7.12
2017-10-22T19:54:00.818Z,4.65
2017-10-22T19:56:27.041Z,6.62
2017-10-22T19:58:53.698Z,5.03
2017-10-22T20:01:21.226Z,4.20
2017-10-22T20:03:47.944Z,6.00
2017-10-22T20:06:14.180Z,5.93
2017-10-22T20:08:40.387Z,4.25
2017-10-22T20:11:07.246Z,9.23
2017-10-22T20:13:33.737Z,13.77
2017-10-22T20:16:00.608Z,9.93
2017-10-22T20:18:26.868Z,8.88
2017-10-22T20:20:53.164Z,5.87
2017-10-22T20:23:19.366Z,6.30
2017-10-22T20:25:45.650Z,5.62
2017-10-22T20:28:12.566Z,5.00
2017-10-22T20:30:38.777Z,7.05
2017-10-22T20:33:06.281Z,6.12
2017-10-22T20:35:33.279Z,5.87
2017-10-22T20:38:00.396Z,6.55
2017-10-22T20:40:28.103Z,4.35
2017-10-22T20:42:54.943Z,5.50
2017-10-22T20:45:22.179Z,3.72
2017-10-22T20:47:48.367Z,4.30
2017-10-22T20:50:14.658Z,3.85
2017-10-22T20:52:41.290Z,3.62
2017-10-22T20:55:07.569Z,3.70
2017-10-22T20:57:34.372Z,4.10
2017-10-22T21:00:01.890Z,4.72
2017-10-22T21:02:28.847Z,3.08
2017-10-22T21:04:55.220Z,3.65
2017-10-22T21:07:22.791Z,4.00
2017-10-22T21:09:49.557Z,3.50
2017-10-22T21:12:16.723Z,3.47
2017-10-22T21:14:43.735Z,2.62
2017-10-22T21:17:10.052Z,3.45
2017-10-22T21:19:36.802Z,3.92
2017-10-22T21:22:03.381Z,2.70
2017-10-22T21:24:30.399Z,2.50
2017-10-22T21:26:58.303Z,2.80
2017-10-22T21:29:25.820Z,2.70
2017-10-22T21:31:52.218Z,2.50
2017-10-22T21:34:27.293Z,3.20
2017-10-22T21:36:54.798Z,2.62
2017-10-22T21:39:22.013Z,3.08
2017-10-22T21:41:49.839Z,3.75
2017-10-22T21:44:18.022Z,3.50
2017-10-22T21:46:44.814Z,2.90
2017-10-22T21:49:11.963Z,2.55
2017-10-22T21:51:38.481Z,2.70
2017-10-22T21:54:04.843Z,3.10
2017-10-22T21:56:31.584Z,2.62
2017-10-22T21:58:57.789Z,2.60
2017-10-22T22:01:24.669Z,2.53
2017-10-22T22:03:50.890Z,2.58
2017-10-22T22:06:18.103Z,7.15
2017-10-22T22:08:44.610Z,3.17
2017-10-22T22:11:11.362Z,3.28
2017-10-22T22:13:38.859Z,3.05
2017-10-22T22:16:05.127Z,3.40
2017-10-22T22:18:31.306Z,3.35
2017-10-22T22:20:57.950Z,3.40
2017-10-22T22:23:24.673Z,8.00
2017-10-22T22:25:51.784Z,3.05
2017-10-22T22:28:18.760Z,9.05
2017-10-22T22:30:45.118Z,3.55
2017-10-22T22:33:12.020Z,4.03
2017-10-22T22:35:38.979Z,4.15
2017-10-22T22:38:06.224Z,4.85
2017-10-22T22:40:34.471Z,6.12
2017-10-22T22:43:01.654Z,3.78
2017-10-22T22:45:27.839Z,4.03
2017-10-22T22:47:54.604Z,5.05
2017-10-22T22:50:21.827Z,4.28
2017-10-22T22:52:48.578Z,6.22
2017-10-22T22:55:14.800Z,5.00
2017-10-22T22:57:41.589Z,3.30
2017-10-22T23:00:09.354Z,6.57
2017-10-22T23:02:35.674Z,3.22
2017-10-22T23:05:03.339Z,3.00
2017-10-22T23:07:30.582Z,2.40
2017-10-22T23:09:57.496Z,2.40
2017-10-22T23:12:24.365Z,2.05
2017-10-22T23:14:51.302Z,2.60
2017-10-22T23:17:19.225Z,2.72
2017-10-22T23:19:46.541Z,2.28
2017-10-22T23:22:14.647Z,2.17
2017-10-22T23:24:41.500Z,1.90
2017-10-22T23:27:07.879Z,3.67
2017-10-22T23:29:35.488Z,1.92
2017-10-22T23:32:02.253Z,1.70
2017-10-22T23:34:28.969Z,3.15
2017-10-22T23:36:55.579Z,2.60
2017-10-22T23:39:22.619Z,2.20
2017-10-22T23:41:49.011Z,1.92
2017-10-22T23:44:16.463Z,2.55
2017-10-22T23:46:43.436Z,1.87
2017-10-22T23:49:10.380Z,7.35
2017-10-22T23:51:38.064Z,2.00
2017-10-22T23:54:04.384Z,2.22
2017-10-22T23:56:31.898Z,2.20
2017-10-22T23:58:58.086Z,3.35
